Gualala, CA

9:25 PM PDT on September 19, 2014 (GMT -0700)
The Sea Ranch | Change Station
CLOSE
Current Station
Personal Weather Station
Location: Sea Ranch, CA
Elevation: 43 ft
Nearby Weather Stations

Elev 43 ft 38.74 °N, 123.50 °W | Updated 14 minutes ago

Partly Cloudy
Partly Cloudy
63.6 °F
Feels Like 63.6 °F
N
3.0
Wind Variable Wind from SSW
Gusts 5.0 mph

Today
High -- | Low -- °F
--% Chance of Precip.
Yesterday
High -- | Low -- °F
Precip. -- in
6:59 AM 7:15 PM
Waning Crescent, 15% visible
Pressure 29.84 in
Visibility 10.0 miles
Clouds Clear
Dew Point Not available.
Humidity Not available.
Rainfall 0.00 in
Snow Depth 0 in , 0 in , 0 in
UV 0.0 out of 12
Pollen 4.70 out of 12
Air Quality Not available.
Flu Activity Not available.
METAR KUKI 200356Z AUTO 00000KT 10SM CLR 23/11 A2986 RMK AO2 SLP103 T02280106

More Conditions Fewer Conditions

Pressure 29.84 in
Visibility 10.0 miles
Clouds Clear
Dew Point Not available.
Humidity Not available.
Rainfall 0.00 in
Snow Depth 0 in , 0 in , 0 in
UV 0.0 out of 12
Pollen 4.70 out of 12
Air Quality Not available.
Flu Activity Not available.
METAR KUKI 200356Z AUTO 00000KT 10SM CLR 23/11 A2986 RMK AO2 SLP103 T02280106

More Conditions Fewer Conditions

10-Day Weather Forecast

Almanac

Astronomy

Sep. 19, 2014 Rise Set
Actual Time 6:59 AM PDT 7:15 PM PDT
Civil Twilight 6:32 AM PDT 7:42 PM PDT
Nautical Twilight 6:01 AM PDT 8:13 PM PDT
Astronomical Twilight 5:29 AM PDT 8:45 PM PDT
Moon 2:51 AM PDT (9/19) 4:46 PM PDT (9/19)
Length of Visible Light 13h 09m
Length of Day
12h 16m
Tomorrow will be 2m 29s shorter.
Waning Crescent, 15% of the Moon is Illuminated
Sep 20
Waning Crescent
Sep 24
New
Oct 1
First Quarter
Oct 8
Full
Oct 15
Last Quarter

Today's Extremes

State Highs State Lows

Community

WunderPhotos

Upload Photos

1,754,777 photos uploaded!

WunderBlogs® & News

Nearby

Snow Depth

Station Depth Elevation
Squaw Valley 0 in 8200 ft
Tahoe City Cross 0 in 6750 ft
Forestdale Creek 0 in 8029 ft
Summit Meadow 0 in 9122 ft
Spratt Creek 0 in 6200 ft

Earthquake Activity

City Distance Mag. Time & Date
Livermore, California 125 miles 2.6 3:37 AM PDT
2014-09-19
The Geysers, California 45 miles 2.5 11:29 PM PDT
2014-09-17
Cobb, California 45 miles 2.7 1:23 PM PDT
2014-09-16
Minimum magnitude displayed is 2.5.

Coastal Water Temperatures

Place Temperature
Point Reyes, CA 66.0 °F
Arena Cove, CA 62.1 °F
San Francisco, CA 64.9 °F
Richmond, CA 69.1 °F

Nearby Weather Stations